createdAt,value
2023-03-21T00:04:40.925Z,13.57
2023-03-21T00:09:46.819Z,14.00
2023-03-21T00:14:47.621Z,12.77
2023-03-21T00:19:51.179Z,13.35
2023-03-21T00:24:53.619Z,14.93
2023-03-21T00:29:54.614Z,15.20
2023-03-21T00:35:11.900Z,15.05
2023-03-21T00:40:27.820Z,15.25
2023-03-21T00:45:30.017Z,15.73
2023-03-21T00:50:32.401Z,16.60
2023-03-21T00:55:35.186Z,15.85
2023-03-21T01:00:37.479Z,18.48
2023-03-21T01:05:58.065Z,19.95
2023-03-21T01:11:04.176Z,21.05
2023-03-21T01:16:07.171Z,21.52
2023-03-21T01:21:13.401Z,23.55
2023-03-21T01:26:16.974Z,22.45
2023-03-21T01:31:18.971Z,23.58
2023-03-21T01:36:23.886Z,22.80
2023-03-21T01:41:46.990Z,21.95
2023-03-21T01:47:10.927Z,22.55
2023-03-21T01:52:38.025Z,22.52
2023-03-21T01:58:03.871Z,21.85
2023-03-21T02:03:16.919Z,23.13
2023-03-21T02:08:38.828Z,23.25
2023-03-21T02:13:45.842Z,24.08
2023-03-21T02:18:57.412Z,23.90
2023-03-21T02:24:23.005Z,23.52
2023-03-21T02:29:42.141Z,23.52
2023-03-21T02:35:04.066Z,22.60
2023-03-21T02:40:12.749Z,22.02
2023-03-21T02:45:19.668Z,24.00
2023-03-21T02:50:33.498Z,23.75
2023-03-21T02:55:38.531Z,20.05
2023-03-21T03:00:39.801Z,20.65
2023-03-21T03:05:44.727Z,21.27
2023-03-21T03:10:56.952Z,20.65
2023-03-21T03:16:12.033Z,22.08
2023-03-21T03:21:21.031Z,22.20
2023-03-21T03:26:27.499Z,21.45
2023-03-21T03:31:34.414Z,22.77
2023-03-21T03:36:40.449Z,23.23
2023-03-21T03:42:07.810Z,23.10
2023-03-21T03:47:32.237Z,22.25
2023-03-21T03:52:50.137Z,21.85
2023-03-21T03:57:57.902Z,23.15
2023-03-21T04:02:59.194Z,24.02
2023-03-21T04:08:00.661Z,22.42
2023-03-21T04:13:11.153Z,23.02
2023-03-21T04:18:18.998Z,22.65
2023-03-21T04:23:20.671Z,23.63
2023-03-21T04:28:24.477Z,23.75
2023-03-21T04:33:47.936Z,22.90
2023-03-21T04:38:49.164Z,22.70
2023-03-21T04:43:52.597Z,25.88
2023-03-21T04:48:54.295Z,25.83
2023-03-21T04:53:57.534Z,25.58
2023-03-21T04:59:00.862Z,24.73
2023-03-21T05:04:03.697Z,25.83
2023-03-21T05:09:07.100Z,26.20
2023-03-21T05:14:12.378Z,25.83
2023-03-21T05:19:13.987Z,25.50
2023-03-21T05:24:18.377Z,25.00
2023-03-21T05:29:21.782Z,26.15
2023-03-21T05:34:42.214Z,24.88
2023-03-21T05:39:43.607Z,26.05
2023-03-21T05:44:52.277Z,19.70
2023-03-21T05:49:58.619Z,16.02
2023-03-21T05:54:59.576Z,12.73
2023-03-21T06:00:03.780Z,12.73
2023-03-21T06:05:16.098Z,10.60
2023-03-21T06:10:17.363Z,10.68
2023-03-21T06:15:22.925Z,9.85
2023-03-21T06:20:32.033Z,9.93
2023-03-21T06:25:40.794Z,8.02
2023-03-21T06:30:43.180Z,8.85
2023-03-21T06:35:53.247Z,8.43
2023-03-21T06:40:54.211Z,7.25
2023-03-21T06:45:58.900Z,8.05
2023-03-21T06:51:00.585Z,7.95
2023-03-21T06:56:03.272Z,7.72
2023-03-21T07:01:08.213Z,7.45
2023-03-21T07:06:17.053Z,6.30
2023-03-21T07:11:18.325Z,7.03
2023-03-21T07:16:22.216Z,6.55
2023-03-21T07:21:23.482Z,7.30
2023-03-21T07:26:24.437Z,5.97
2023-03-21T07:31:27.982Z,6.70
2023-03-21T07:36:29.285Z,6.63
2023-03-21T07:41:29.954Z,6.78
2023-03-21T07:46:44.931Z,8.93
2023-03-21T07:51:45.618Z,7.97
2023-03-21T07:56:46.497Z,8.25
2023-03-21T08:01:48.537Z,9.90
2023-03-21T08:06:51.492Z,7.43
2023-03-21T08:11:52.216Z,8.90
2023-03-21T08:16:54.305Z,8.25
2023-03-21T08:21:55.150Z,6.78
2023-03-21T08:26:55.893Z,6.55
2023-03-21T08:31:58.227Z,7.55
2023-03-21T08:36:59.224Z,7.07
2023-03-21T08:41:59.979Z,7.47
2023-03-21T08:47:02.211Z,7.63
2023-03-21T08:52:03.163Z,7.22
2023-03-21T08:57:03.996Z,6.47
2023-03-21T09:02:06.118Z,5.80
2023-03-21T09:07:06.931Z,5.60
2023-03-21T09:12:07.852Z,5.40
2023-03-21T09:17:09.883Z,5.80
2023-03-21T09:22:14.295Z,6.07
2023-03-21T09:27:15.789Z,5.50
2023-03-21T09:32:18.644Z,4.70
2023-03-21T09:37:21.246Z,5.28
2023-03-21T09:42:34.671Z,5.10
2023-03-21T09:47:45.441Z,4.60
2023-03-21T09:52:50.701Z,4.50
2023-03-21T09:57:58.613Z,4.07
2023-03-21T10:03:06.858Z,3.38
2023-03-21T10:08:10.688Z,3.17
2023-03-21T10:13:16.348Z,3.42
2023-03-21T10:18:24.052Z,3.53
2023-03-21T10:23:29.719Z,3.85
2023-03-21T10:34:03.786Z,3.47
2023-03-21T10:39:14.124Z,3.65
2023-03-21T10:44:17.411Z,3.65
2023-03-21T10:49:21.602Z,3.35
2023-03-21T10:54:27.846Z,3.38
2023-03-21T10:59:36.756Z,3.72
2023-03-21T11:04:39.725Z,3.45
2023-03-21T11:09:50.025Z,3.40
2023-03-21T11:14:52.173Z,3.20
2023-03-21T11:19:58.404Z,3.45
2023-03-21T11:25:01.687Z,2.78
2023-03-21T11:30:05.255Z,2.75
2023-03-21T11:35:15.142Z,2.30
2023-03-21T11:40:25.711Z,2.33
2023-03-21T11:45:29.093Z,2.28
2023-03-21T11:50:35.421Z,2.72
2023-03-21T11:55:47.337Z,2.60
2023-03-21T12:00:57.217Z,1.92
2023-03-21T12:06:02.672Z,2.38
2023-03-21T12:11:11.926Z,2.17
2023-03-21T12:16:27.778Z,3.17
2023-03-21T12:21:35.901Z,2.58
2023-03-21T12:26:44.322Z,2.70
2023-03-21T12:31:57.638Z,2.50
2023-03-21T12:37:14.681Z,2.63
2023-03-21T12:42:43.035Z,2.58
2023-03-21T12:47:48.761Z,2.95
2023-03-21T12:52:55.157Z,3.20
2023-03-21T12:58:03.245Z,8.18
2023-03-21T13:03:11.619Z,3.08
2023-03-21T13:08:21.020Z,2.65
2023-03-21T13:13:27.167Z,1.83
2023-03-21T13:18:36.738Z,2.88
2023-03-21T13:23:40.281Z,2.55
2023-03-21T13:28:43.193Z,2.33
2023-03-21T13:33:47.324Z,3.20
2023-03-21T13:38:53.116Z,2.58
2023-03-21T13:43:55.530Z,2.95
2023-03-21T13:48:59.927Z,2.20
2023-03-21T13:54:04.407Z,2.47
2023-03-21T13:59:10.851Z,2.60
2023-03-21T14:04:15.559Z,2.10
2023-03-21T14:09:23.716Z,2.25
2023-03-21T14:14:27.828Z,1.98
2023-03-21T14:19:33.094Z,2.03
2023-03-21T14:24:35.121Z,2.30
2023-03-21T14:29:36.672Z,2.00
2023-03-21T14:34:38.470Z,2.20
2023-03-21T14:39:40.504Z,2.33
2023-03-21T14:44:57.847Z,2.45
2023-03-21T14:50:00.975Z,2.38
2023-03-21T14:55:06.400Z,2.45
2023-03-21T15:00:12.550Z,2.10
2023-03-21T15:05:19.784Z,2.13
2023-03-21T15:10:22.171Z,2.53
2023-03-21T15:15:27.580Z,2.25
2023-03-21T15:20:32.827Z,2.45
2023-03-21T15:25:37.230Z,2.00
2023-03-21T15:30:38.220Z,1.90
2023-03-21T15:35:41.696Z,1.90
2023-03-21T15:40:44.726Z,2.15
2023-03-21T15:45:49.870Z,1.77
2023-03-21T15:50:57.011Z,1.63
2023-03-21T15:56:01.999Z,2.60
2023-03-21T16:01:07.161Z,2.10
2023-03-21T16:06:18.900Z,2.00
2023-03-21T16:11:26.076Z,1.90
2023-03-21T16:16:28.485Z,1.92
2023-03-21T16:21:31.117Z,1.77
2023-03-21T16:26:34.483Z,2.15
2023-03-21T16:31:37.252Z,2.40
2023-03-21T16:36:40.335Z,1.75
2023-03-21T16:41:42.353Z,2.25
2023-03-21T16:46:43.012Z,2.13
2023-03-21T16:51:43.770Z,2.17
2023-03-21T16:56:47.916Z,1.92
2023-03-21T17:01:49.081Z,1.65
2023-03-21T17:06:51.829Z,2.40
2023-03-21T17:11:53.879Z,2.90
2023-03-21T17:16:55.172Z,2.60
2023-03-21T17:21:56.212Z,2.22
2023-03-21T17:26:58.586Z,2.90
2023-03-21T17:31:59.333Z,3.25
2023-03-21T17:37:00.395Z,3.03
2023-03-21T17:42:02.405Z,3.25
2023-03-21T17:47:03.088Z,2.85
2023-03-21T17:52:04.091Z,3.40
2023-03-21T17:57:06.149Z,2.47
2023-03-21T18:02:07.053Z,2.75
2023-03-21T18:07:16.161Z,3.45
2023-03-21T18:12:22.968Z,3.25
2023-03-21T18:17:23.684Z,3.30
2023-03-21T18:22:24.644Z,3.40
2023-03-21T18:27:27.035Z,3.80
2023-03-21T18:32:30.265Z,3.25
2023-03-21T18:37:31.810Z,3.78
2023-03-21T18:42:33.867Z,3.25
2023-03-21T18:47:34.974Z,3.75
2023-03-21T18:52:36.168Z,3.28
2023-03-21T18:57:39.255Z,4.00
2023-03-21T19:02:45.555Z,3.72
2023-03-21T19:07:48.169Z,3.25
2023-03-21T19:12:51.756Z,4.10
2023-03-21T19:23:17.248Z,4.50
2023-03-21T19:28:19.719Z,4.18
2023-03-21T19:33:21.042Z,4.35
2023-03-21T19:38:21.734Z,5.13
2023-03-21T19:43:32.860Z,4.95
2023-03-21T19:48:34.186Z,4.57
2023-03-21T19:53:34.950Z,4.10
2023-03-21T19:58:37.124Z,4.13
2023-03-21T20:03:38.041Z,4.90
2023-03-21T20:09:05.786Z,6.03
2023-03-21T20:14:03.041Z,5.57
2023-03-21T20:19:06.667Z,5.93
2023-03-21T20:24:08.586Z,5.53
2023-03-21T20:30:03.818Z,5.50
2023-03-21T20:34:32.038Z,6.15
2023-03-21T20:39:32.731Z,5.53
2023-03-21T20:44:52.328Z,5.10
2023-03-21T20:49:56.767Z,6.07
2023-03-21T20:54:58.331Z,5.93
2023-03-21T21:00:00.539Z,5.68
2023-03-21T21:05:24.562Z,4.75
2023-03-21T21:10:23.135Z,7.35
2023-03-21T21:15:25.224Z,5.63
2023-03-21T21:20:26.719Z,5.60
2023-03-21T21:25:30.387Z,6.05
2023-03-21T21:30:34.327Z,6.03
2023-03-21T21:35:35.917Z,5.78
2023-03-21T21:40:37.399Z,7.05
2023-03-21T21:45:40.043Z,5.88
2023-03-21T21:50:42.299Z,5.35
2023-03-21T21:55:43.032Z,5.15
2023-03-21T22:00:45.963Z,4.50
2023-03-21T22:05:46.706Z,4.75
2023-03-21T22:10:47.629Z,4.93
2023-03-21T22:15:49.625Z,5.38
2023-03-21T22:20:50.508Z,5.40
2023-03-21T22:25:52.307Z,6.03
2023-03-21T22:30:54.611Z,5.38
2023-03-21T22:35:55.280Z,6.45
2023-03-21T22:40:56.292Z,6.10
2023-03-21T22:45:58.314Z,8.10
2023-03-21T22:50:59.637Z,7.00
2023-03-21T22:56:00.448Z,8.00
2023-03-21T23:01:05.193Z,7.60
2023-03-21T23:06:06.223Z,8.98
2023-03-21T23:11:07.885Z,8.75
2023-03-21T23:16:10.453Z,9.38
2023-03-21T23:21:13.842Z,9.18
2023-03-21T23:26:14.562Z,9.45
2023-03-21T23:31:19.728Z,9.45
2023-03-21T23:36:21.802Z,9.60
2023-03-21T23:41:24.532Z,9.52
2023-03-21T23:46:26.544Z,10.27
2023-03-21T23:51:27.213Z,9.82
2023-03-21T23:56:28.268Z,11.13
